Time;durP1;ratioP1;P1;durP2;ratioP2;P2;SDS_P1;SDS_P2;PMS_P1;PMS_P2;Temp;Humidity;BMP_temperature;BMP_pressure;BME280_temperature;BME280_humidity;BME280_pressure;Samples;Min_cycle;Max_cycle;Signal;HPM_P1;HPM_P2
2022/10/21 00:00:18;;;;;;;43.73;27.47;;;;;;;;;;5037903;28;20212;-79
2022/10/21 00:02:44;;;;;;;42.93;27.37;;;;;;;;;;5057534;28;20191;-79
2022/10/21 00:05:10;;;;;;;42.60;27.57;;;;;;;;;;5040236;28;20191;-79
2022/10/21 00:07:36;;;;;;;46.07;28.83;;;;;;;;;;5041674;28;20198;-79
2022/10/21 00:10:03;;;;;;;43.93;27.87;;;;;;;;;;5039870;28;20335;-79
2022/10/21 00:12:29;;;;;;;49.30;27.97;;;;;;;;;;5039980;28;20192;-79
2022/10/21 00:14:55;;;;;;;44.43;27.63;;;;;;;;;;5039630;28;20195;-79
2022/10/21 00:17:21;;;;;;;42.43;27.67;;;;;;;;;;5038046;28;20234;-80
2022/10/21 00:19:47;;;;;;;45.63;26.97;;;;;;;;;;5057054;28;20218;-79
2022/10/21 00:22:13;;;;;;;49.87;29.97;;;;;;;;;;5039003;28;20263;-79
2022/10/21 00:24:39;;;;;;;48.60;28.87;;;;;;;;;;5039846;28;20183;-79
2022/10/21 00:27:05;;;;;;;44.37;28.97;;;;;;;;;;5036114;28;20184;-79
2022/10/21 00:29:31;;;;;;;53.70;30.70;;;;;;;;;;5031260;28;20192;-79
2022/10/21 00:31:57;;;;;;;49.97;30.70;;;;;;;;;;5029954;28;20187;-79
2022/10/21 00:34:23;;;;;;;57.10;31.90;;;;;;;;;;5039707;28;20184;-79
2022/10/21 00:36:49;;;;;;;51.87;29.83;;;;;;;;;;5038843;28;20195;-79
2022/10/21 00:39:15;;;;;;;49.47;31.77;;;;;;;;;;5055905;28;20261;-80
2022/10/21 00:41:41;;;;;;;49.77;31.13;;;;;;;;;;5035687;28;20208;-80
2022/10/21 00:44:10;;;;;;;55.53;32.47;;;;;;;;;;5037247;28;20268;-79
2022/10/21 00:46:42;;;;;;;50.67;32.57;;;;;;;;;;5028279;28;20234;-79
2022/10/21 00:49:32;;;;;;;55.40;33.00;;;;;;;;;;5055264;28;20238;-79
2022/10/21 00:51:59;;;;;;;55.57;31.97;;;;;;;;;;5002373;28;20225;-79
2022/10/21 00:54:26;;;;;;;52.37;31.77;;;;;;;;;;5038553;28;20283;-79
2022/10/21 00:56:53;;;;;;;51.63;31.87;;;;;;;;;;5038966;28;20195;-79
2022/10/21 00:59:20;;;;;;;49.03;30.57;;;;;;;;;;5038364;28;20277;-79
2022/10/21 01:01:47;;;;;;;54.23;32.50;;;;;;;;;;5040303;28;20275;-79
2022/10/21 01:04:13;;;;;;;52.13;31.70;;;;;;;;;;5038626;28;20180;-80
2022/10/21 01:06:40;;;;;;;55.47;32.83;;;;;;;;;;5038369;28;20191;-80
2022/10/21 01:09:06;;;;;;;53.10;31.77;;;;;;;;;;5038369;28;20242;-80
2022/10/21 01:11:35;;;;;;;57.63;31.70;;;;;;;;;;5038481;28;20188;-80
2022/10/21 01:14:01;;;;;;;52.30;30.70;;;;;;;;;;5038339;28;20242;-80
2022/10/21 01:16:27;;;;;;;55.70;30.30;;;;;;;;;;5048115;28;20193;-82
2022/10/21 01:18:56;;;;;;;58.73;30.67;;;;;;;;;;5052410;28;20208;-82
2022/10/21 01:21:25;;;;;;;54.83;29.53;;;;;;;;;;5037589;28;20226;-82
2022/10/21 01:23:51;;;;;;;60.80;30.57;;;;;;;;;;5037363;28;20179;-81
2022/10/21 01:26:26;;;;;;;49.70;29.53;;;;;;;;;;5036696;28;20211;-81
2022/10/21 01:28:52;;;;;;;72.83;31.17;;;;;;;;;;5033761;28;20196;-82
2022/10/21 01:31:28;;;;;;;57.77;28.87;;;;;;;;;;5034283;28;20185;-81
2022/10/21 01:33:59;;;;;;;57.73;30.20;;;;;;;;;;5037705;28;20207;-79
2022/10/21 01:36:25;;;;;;;77.27;32.00;;;;;;;;;;5024560;28;20245;-79
2022/10/21 01:38:58;;;;;;;68.57;30.30;;;;;;;;;;5032975;28;20350;-79
2022/10/21 01:41:28;;;;;;;51.70;27.33;;;;;;;;;;5026451;28;20180;-79
2022/10/21 01:43:59;;;;;;;54.13;28.33;;;;;;;;;;5036906;28;20184;-79
2022/10/21 01:46:34;;;;;;;50.17;28.13;;;;;;;;;;5038700;28;20310;-79
2022/10/21 01:49:06;;;;;;;49.30;27.27;;;;;;;;;;5053654;28;20191;-80
2022/10/21 01:51:34;;;;;;;55.90;27.37;;;;;;;;;;5054377;28;20187;-82
2022/10/21 01:54:02;;;;;;;72.00;29.67;;;;;;;;;;5033035;28;20185;-82
2022/10/21 01:56:29;;;;;;;61.23;30.87;;;;;;;;;;5032351;28;20227;-81
2022/10/21 01:58:55;;;;;;;70.77;29.77;;;;;;;;;;5034557;28;20303;-82
2022/10/21 02:01:22;;;;;;;49.33;26.37;;;;;;;;;;5032367;28;20185;-82
2022/10/21 02:03:49;;;;;;;56.43;28.47;;;;;;;;;;5045243;28;20183;-82
2022/10/21 02:06:16;;;;;;;53.93;27.20;;;;;;;;;;5041550;28;20187;-82
2022/10/21 02:08:42;;;;;;;53.27;27.63;;;;;;;;;;5044104;28;20235;-82
2022/10/21 02:11:10;;;;;;;47.90;27.30;;;;;;;;;;5059698;28;20179;-82
2022/10/21 02:14:08;;;;;;;70.37;31.47;;;;;;;;;;5039246;28;20208;-82
2022/10/21 02:16:36;;;;;;;56.10;28.07;;;;;;;;;;5028030;28;20212;-82
2022/10/21 02:19:03;;;;;;;53.20;29.53;;;;;;;;;;5059116;28;20220;-82
2022/10/21 02:21:33;;;;;;;53.07;28.93;;;;;;;;;;5046326;28;20268;-83
2022/10/21 02:24:04;;;;;;;59.63;30.17;;;;;;;;;;5082191;23;20234;-81
2022/10/21 02:26:30;;;;;;;62.73;29.90;;;;;;;;;;5073704;28;20224;-81
2022/10/21 02:28:57;;;;;;;49.03;28.37;;;;;;;;;;5071751;28;20191;-81
2022/10/21 02:31:26;;;;;;;53.33;29.67;;;;;;;;;;5070626;28;20182;-80
2022/10/21 02:34:10;;;;;;;57.93;30.87;;;;;;;;;;5072449;28;20221;-79
2022/10/21 02:36:39;;;;;;;54.87;32.53;;;;;;;;;;5071058;28;20194;-80
2022/10/21 02:39:12;;;;;;;63.17;29.47;;;;;;;;;;5075316;28;20218;-81
2022/10/21 02:41:38;;;;;;;56.80;27.93;;;;;;;;;;5077380;28;20273;-81
2022/10/21 02:44:04;;;;;;;49.87;25.97;;;;;;;;;;5074544;28;20183;-81
2022/10/21 02:46:41;;;;;;;55.30;26.13;;;;;;;;;;5071098;28;20182;-80
2022/10/21 02:49:07;;;;;;;39.63;22.97;;;;;;;;;;5073052;28;20183;-80
2022/10/21 02:51:33;;;;;;;43.20;22.73;;;;;;;;;;5066884;28;20178;-80
2022/10/21 02:53:59;;;;;;;45.83;24.17;;;;;;;;;;5093707;28;20193;-80
2022/10/21 02:56:26;;;;;;;37.83;22.40;;;;;;;;;;5076241;28;20183;-89
2022/10/21 02:58:52;;;;;;;46.90;23.83;;;;;;;;;;5076363;28;20258;-90
2022/10/21 03:01:18;;;;;;;46.33;23.73;;;;;;;;;;5069698;28;20186;-89
2022/10/21 03:03:44;;;;;;;41.77;23.97;;;;;;;;;;5056180;28;20187;-88
2022/10/21 03:06:10;;;;;;;37.93;22.33;;;;;;;;;;5066415;28;20187;-90
2022/10/21 03:08:36;;;;;;;50.07;25.30;;;;;;;;;;5056519;28;20195;-90
2022/10/21 03:11:02;;;;;;;43.77;25.23;;;;;;;;;;5065974;28;20198;-89
2022/10/21 03:13:28;;;;;;;46.37;23.37;;;;;;;;;;5092916;28;20205;-77
2022/10/21 03:15:54;;;;;;;41.23;23.07;;;;;;;;;;5075754;28;20186;-77
2022/10/21 03:18:20;;;;;;;36.33;22.63;;;;;;;;;;5075686;28;20195;-77
2022/10/21 03:20:50;;;;;;;46.93;24.40;;;;;;;;;;5076582;28;20182;-77
2022/10/21 03:23:20;;;;;;;42.40;23.20;;;;;;;;;;5069643;28;20241;-77
2022/10/21 03:25:46;;;;;;;43.60;23.90;;;;;;;;;;5093461;28;20186;-77
2022/10/21 03:28:12;;;;;;;49.53;24.37;;;;;;;;;;5076399;28;20179;-77
2022/10/21 03:30:38;;;;;;;52.37;25.37;;;;;;;;;;5076472;28;20239;-82
2022/10/21 03:33:04;;;;;;;45.67;24.97;;;;;;;;;;5076288;28;20194;-82
2022/10/21 03:35:30;;;;;;;53.10;23.63;;;;;;;;;;5090925;28;20266;-82
2022/10/21 03:37:56;;;;;;;38.17;23.07;;;;;;;;;;5078407;28;20202;-82
2022/10/21 03:40:22;;;;;;;40.10;23.23;;;;;;;;;;5073938;28;20274;-82
2022/10/21 03:42:49;;;;;;;39.10;22.37;;;;;;;;;;5076389;28;20175;-90
2022/10/21 03:45:15;;;;;;;45.33;22.53;;;;;;;;;;5076464;28;20175;-90
2022/10/21 03:47:41;;;;;;;47.07;23.30;;;;;;;;;;5076277;28;20197;-78
2022/10/21 03:50:07;;;;;;;44.07;22.60;;;;;;;;;;5075528;28;20186;-78
2022/10/21 03:52:33;;;;;;;41.53;23.43;;;;;;;;;;5059376;28;20221;-78
2022/10/21 03:54:59;;;;;;;38.53;22.87;;;;;;;;;;5091323;28;20232;-78
2022/10/21 03:57:25;;;;;;;39.07;22.10;;;;;;;;;;5070639;28;20175;-78
2022/10/21 03:59:51;;;;;;;34.13;20.03;;;;;;;;;;5055955;28;20218;-77
2022/10/21 04:02:17;;;;;;;44.70;21.27;;;;;;;;;;5079162;28;20191;-78
2022/10/21 04:04:43;;;;;;;32.40;19.67;;;;;;;;;;5051395;28;20193;-78
2022/10/21 04:07:09;;;;;;;39.90;21.93;;;;;;;;;;5059177;28;20182;-78
2022/10/21 04:09:35;;;;;;;34.90;18.10;;;;;;;;;;5075778;28;20214;-78
2022/10/21 04:12:01;;;;;;;30.53;18.10;;;;;;;;;;5081070;28;20222;-78
2022/10/21 04:14:27;;;;;;;27.33;17.83;;;;;;;;;;5075446;28;20179;-78
2022/10/21 04:16:53;;;;;;;30.53;18.00;;;;;;;;;;5069538;28;20197;-78
2022/10/21 04:19:19;;;;;;;30.00;18.70;;;;;;;;;;5074341;28;20224;-82
2022/10/21 04:21:46;;;;;;;27.77;17.27;;;;;;;;;;5075430;28;20193;-82
2022/10/21 04:24:12;;;;;;;25.43;17.60;;;;;;;;;;5092296;28;20232;-82
2022/10/21 04:26:40;;;;;;;31.90;18.30;;;;;;;;;;5050673;28;20195;-81
2022/10/21 04:29:06;;;;;;;26.50;17.97;;;;;;;;;;5063637;28;20191;-82
2022/10/21 04:31:32;;;;;;;34.13;19.37;;;;;;;;;;5084317;28;20246;-82
2022/10/21 04:33:58;;;;;;;33.33;18.97;;;;;;;;;;5064876;28;20190;-81
2022/10/21 04:36:25;;;;;;;36.50;19.10;;;;;;;;;;5095049;28;20183;-81
2022/10/21 04:38:51;;;;;;;30.67;17.83;;;;;;;;;;5097200;28;20347;-80
2022/10/21 04:41:17;;;;;;;25.77;18.70;;;;;;;;;;5097075;28;20214;-80
2022/10/21 04:43:43;;;;;;;28.90;19.17;;;;;;;;;;5078989;28;20247;-80
2022/10/21 04:46:13;;;;;;;23.27;16.93;;;;;;;;;;5079702;28;20185;-80
2022/10/21 04:48:39;;;;;;;25.60;17.87;;;;;;;;;;5079019;28;20178;-80
2022/10/21 04:51:05;;;;;;;24.30;16.87;;;;;;;;;;5079447;28;20183;-80
2022/10/21 04:53:32;;;;;;;24.23;16.87;;;;;;;;;;5079687;28;20209;-81
2022/10/21 04:55:58;;;;;;;27.80;17.90;;;;;;;;;;5079432;28;20206;-81
2022/10/21 04:58:24;;;;;;;22.73;16.73;;;;;;;;;;5097049;28;20175;-81
2022/10/21 05:00:50;;;;;;;29.43;18.07;;;;;;;;;;5078917;28;20235;-81
2022/10/21 05:03:17;;;;;;;28.53;18.33;;;;;;;;;;5079128;28;20187;-81
2022/10/21 05:05:43;;;;;;;26.73;18.00;;;;;;;;;;5078749;28;20172;-81
2022/10/21 05:08:09;;;;;;;23.57;15.87;;;;;;;;;;5079409;28;20182;-81
2022/10/21 05:10:35;;;;;;;24.27;15.83;;;;;;;;;;5079010;28;20186;-77
2022/10/21 05:13:01;;;;;;;25.33;16.30;;;;;;;;;;5078971;28;20193;-77
2022/10/21 05:15:27;;;;;;;21.13;14.90;;;;;;;;;;5075140;28;20194;-77
2022/10/21 05:17:53;;;;;;;27.63;16.60;;;;;;;;;;5086137;28;20191;-78
2022/10/21 05:20:19;;;;;;;23.10;15.60;;;;;;;;;;5090241;28;20210;-78
2022/10/21 05:22:48;;;;;;;22.20;15.67;;;;;;;;;;5073846;28;20190;-77
2022/10/21 05:25:14;;;;;;;26.60;15.30;;;;;;;;;;5077150;28;20175;-77
2022/10/21 05:27:40;;;;;;;25.70;16.23;;;;;;;;;;5074520;28;20191;-82
2022/10/21 05:30:06;;;;;;;25.33;15.27;;;;;;;;;;5053897;28;20217;-81
2022/10/21 05:32:32;;;;;;;19.00;14.20;;;;;;;;;;5078233;28;20229;-81
2022/10/21 05:34:58;;;;;;;20.77;15.10;;;;;;;;;;5075172;28;20222;-82
2022/10/21 05:37:24;;;;;;;20.53;15.20;;;;;;;;;;5064761;28;20250;-81
2022/10/21 05:39:50;;;;;;;18.73;15.27;;;;;;;;;;5072560;28;20215;-82
2022/10/21 05:42:16;;;;;;;19.03;14.27;;;;;;;;;;5061295;28;20186;-82
2022/10/21 05:44:42;;;;;;;21.77;13.80;;;;;;;;;;5057866;28;20277;-80
2022/10/21 05:47:08;;;;;;;15.27;12.67;;;;;;;;;;5048237;28;20190;-80
2022/10/21 05:49:34;;;;;;;17.10;13.13;;;;;;;;;;5077759;28;20183;-80
2022/10/21 05:52:01;;;;;;;19.77;14.13;;;;;;;;;;5074017;28;20252;-80
2022/10/21 05:54:27;;;;;;;19.87;14.83;;;;;;;;;;5054148;28;20214;-80
2022/10/21 05:56:56;;;;;;;24.80;16.13;;;;;;;;;;5088492;28;20186;-80
2022/10/21 05:59:22;;;;;;;23.27;16.93;;;;;;;;;;5095227;28;20238;-80
2022/10/21 06:01:48;;;;;;;23.67;17.43;;;;;;;;;;5089563;28;20320;-80
2022/10/21 06:04:14;;;;;;;25.00;17.53;;;;;;;;;;5076789;28;20174;-80
2022/10/21 06:06:40;;;;;;;21.40;17.07;;;;;;;;;;5077016;28;20190;-80
2022/10/21 06:09:06;;;;;;;26.33;17.80;;;;;;;;;;5063252;28;20195;-81
2022/10/21 06:11:32;;;;;;;24.77;17.23;;;;;;;;;;5051368;28;20191;-81
2022/10/21 06:13:58;;;;;;;25.37;16.80;;;;;;;;;;5051964;28;20281;-81
2022/10/21 06:16:24;;;;;;;28.37;18.50;;;;;;;;;;5070098;28;20278;-91
2022/10/21 06:18:50;;;;;;;24.17;17.73;;;;;;;;;;5095776;28;20237;-90
2022/10/21 06:21:17;;;;;;;24.30;17.10;;;;;;;;;;5062098;28;20197;-90
2022/10/21 06:23:43;;;;;;;23.03;17.17;;;;;;;;;;5073390;28;20230;-82
2022/10/21 06:26:14;;;;;;;24.70;17.57;;;;;;;;;;5067028;28;20179;-82
2022/10/21 06:28:41;;;;;;;23.73;17.30;;;;;;;;;;5085269;28;20187;-82
2022/10/21 06:31:07;;;;;;;23.90;17.17;;;;;;;;;;5074080;28;20186;-82
2022/10/21 06:33:34;;;;;;;29.47;17.50;;;;;;;;;;5091104;28;20187;-78
2022/10/21 06:36:00;;;;;;;23.23;17.20;;;;;;;;;;5083582;28;20325;-78
2022/10/21 06:38:26;;;;;;;23.90;17.03;;;;;;;;;;5060374;28;20229;-77
2022/10/21 06:40:53;;;;;;;24.50;17.93;;;;;;;;;;5084876;28;20214;-77
2022/10/21 06:43:19;;;;;;;26.53;18.70;;;;;;;;;;5094344;28;20178;-77
2022/10/21 06:45:45;;;;;;;27.77;19.10;;;;;;;;;;5076385;28;20183;-77
2022/10/21 06:48:12;;;;;;;25.27;17.77;;;;;;;;;;5044559;28;20185;-77
2022/10/21 06:50:38;;;;;;;22.73;18.27;;;;;;;;;;5076940;28;20281;-88
2022/10/21 06:53:04;;;;;;;24.23;17.77;;;;;;;;;;5070594;28;20222;-88
2022/10/21 06:55:31;;;;;;;26.20;17.43;;;;;;;;;;5074537;28;20195;-91
2022/10/21 06:57:58;;;;;;;22.63;17.73;;;;;;;;;;5076097;28;20186;-90
2022/10/21 07:00:24;;;;;;;26.43;19.40;;;;;;;;;;5075231;28;20207;-89
2022/10/21 07:02:50;;;;;;;28.10;19.47;;;;;;;;;;5086779;28;20182;-89
2022/10/21 07:05:16;;;;;;;25.00;19.50;;;;;;;;;;5086933;28;20235;-80
2022/10/21 07:07:42;;;;;;;27.30;18.67;;;;;;;;;;5074271;28;20196;-82
2022/10/21 07:10:08;;;;;;;29.10;18.93;;;;;;;;;;5074906;28;20289;-81
2022/10/21 07:12:35;;;;;;;26.67;18.63;;;;;;;;;;5088642;28;20190;-81
2022/10/21 07:15:01;;;;;;;25.33;18.53;;;;;;;;;;5074152;28;20194;-82
2022/10/21 07:17:29;;;;;;;28.67;19.80;;;;;;;;;;5093732;28;20316;-82
2022/10/21 07:19:55;;;;;;;19.15;14.77;;;;;;;;;;5091991;28;20440;-82
2022/10/21 07:22:21;;;;;;;28.70;19.37;;;;;;;;;;5065059;28;20183;-81
2022/10/21 07:24:47;;;;;;;26.80;20.20;;;;;;;;;;5066607;28;20233;-81
2022/10/21 07:27:13;;;;;;;31.80;21.10;;;;;;;;;;5073487;28;20182;-81
2022/10/21 07:29:39;;;;;;;28.97;20.13;;;;;;;;;;5071241;28;20190;-80
2022/10/21 07:32:05;;;;;;;31.73;21.67;;;;;;;;;;5079069;28;20295;-80
2022/10/21 07:34:31;;;;;;;28.43;20.23;;;;;;;;;;5073932;28;20277;-80
2022/10/21 07:36:57;;;;;;;36.37;22.07;;;;;;;;;;5074414;28;20179;-80
2022/10/21 07:39:25;;;;;;;33.50;22.27;;;;;;;;;;5075527;28;20206;-82
2022/10/21 07:41:52;;;;;;;29.03;20.87;;;;;;;;;;5087865;28;20213;-83
2022/10/21 07:44:19;;;;;;;38.00;23.83;;;;;;;;;;5073208;28;20670;-82
2022/10/21 07:46:46;;;;;;;33.00;23.73;;;;;;;;;;5074165;28;20182;-82
2022/10/21 07:49:13;;;;;;;38.60;24.70;;;;;;;;;;5079662;28;20274;-82
2022/10/21 07:51:39;;;;;;;39.10;23.33;;;;;;;;;;5066297;28;20244;-82
2022/10/21 07:54:06;;;;;;;39.70;24.37;;;;;;;;;;5068594;28;20206;-82
2022/10/21 07:56:33;;;;;;;41.93;24.50;;;;;;;;;;5071803;28;20190;-87
2022/10/21 07:59:00;;;;;;;39.43;22.33;;;;;;;;;;5060923;28;20203;-88
2022/10/21 08:01:26;;;;;;;40.03;23.50;;;;;;;;;;5056752;28;20185;-88
2022/10/21 08:03:53;;;;;;;35.53;23.47;;;;;;;;;;5075626;28;20240;-88
2022/10/21 08:06:19;;;;;;;37.33;24.83;;;;;;;;;;5075032;28;20274;-89
2022/10/21 08:08:45;;;;;;;37.90;23.57;;;;;;;;;;5055393;28;20221;-89
2022/10/21 08:11:12;;;;;;;43.00;26.10;;;;;;;;;;5078840;28;20210;-89
2022/10/21 08:13:40;;;;;;;36.20;25.23;;;;;;;;;;5083711;28;20220;-80
2022/10/21 08:16:06;;;;;;;43.80;26.60;;;;;;;;;;5096504;28;20174;-80
2022/10/21 08:18:32;;;;;;;38.03;24.57;;;;;;;;;;5096420;28;20182;-80
2022/10/21 08:20:58;;;;;;;37.83;25.07;;;;;;;;;;5060695;28;20190;-80
2022/10/21 08:23:25;;;;;;;40.03;26.53;;;;;;;;;;5076717;28;20309;-80
2022/10/21 08:25:52;;;;;;;51.47;29.47;;;;;;;;;;5078994;28;20171;-81
2022/10/21 08:28:19;;;;;;;46.00;28.30;;;;;;;;;;5077002;28;20211;-81
2022/10/21 08:30:45;;;;;;;38.87;26.83;;;;;;;;;;5059544;28;20187;-78
2022/10/21 08:33:12;;;;;;;42.40;27.40;;;;;;;;;;5060398;28;20187;-78
2022/10/21 08:35:38;;;;;;;44.33;28.10;;;;;;;;;;5075614;28;20243;-78
2022/10/21 08:38:04;;;;;;;43.97;27.77;;;;;;;;;;5059318;28;20202;-78
2022/10/21 08:40:36;;;;;;;44.03;27.67;;;;;;;;;;5058950;28;20260;-78
2022/10/21 08:43:10;;;;;;;39.67;27.20;;;;;;;;;;5073603;28;20240;-78
2022/10/21 08:45:43;;;;;;;34.80;25.10;;;;;;;;;;5069618;28;20182;-78
2022/10/21 08:48:12;;;;;;;37.20;25.73;;;;;;;;;;5095847;28;20182;-82
2022/10/21 08:50:51;;;;;;;36.63;23.87;;;;;;;;;;5075400;28;20184;-82
2022/10/21 08:53:22;;;;;;;32.13;23.43;;;;;;;;;;5086789;28;20231;-83
2022/10/21 08:55:48;;;;;;;32.23;24.90;;;;;;;;;;5061999;28;20187;-84
2022/10/21 08:58:19;;;;;;;33.80;24.83;;;;;;;;;;5060480;28;20252;-83
2022/10/21 09:00:58;;;;;;;34.77;24.23;;;;;;;;;;5078716;28;20221;-83
2022/10/21 09:03:35;;;;;;;32.67;24.57;;;;;;;;;;5066599;28;20183;-78
2022/10/21 09:06:07;;;;;;;30.50;22.77;;;;;;;;;;5082694;28;20175;-78
2022/10/21 09:08:52;;;;;;;31.37;22.77;;;;;;;;;;5062054;28;20170;-78
2022/10/21 09:11:33;;;;;;;32.10;22.70;;;;;;;;;;5078425;28;20177;-78
2022/10/21 09:14:06;;;;;;;30.27;22.60;;;;;;;;;;5078322;28;20170;-78
2022/10/21 09:16:35;;;;;;;30.03;22.20;;;;;;;;;;5095386;28;20170;-78
2022/10/21 09:19:01;;;;;;;26.40;20.63;;;;;;;;;;5093699;28;20206;-90
2022/10/21 09:21:35;;;;;;;25.17;20.83;;;;;;;;;;5058939;28;20180;-89
2022/10/21 09:24:06;;;;;;;27.37;19.27;;;;;;;;;;5075434;28;20238;-90
2022/10/21 09:26:35;;;;;;;26.10;18.80;;;;;;;;;;5097684;28;20197;-89
2022/10/21 09:29:15;;;;;;;23.13;18.43;;;;;;;;;;5096480;28;20175;-89
2022/10/21 09:31:43;;;;;;;24.33;18.93;;;;;;;;;;5097752;28;20174;-89
2022/10/21 09:34:18;;;;;;;26.23;18.40;;;;;;;;;;5098669;28;20174;-89
2022/10/21 09:36:47;;;;;;;21.77;17.40;;;;;;;;;;5078617;28;20186;-78
2022/10/21 09:39:19;;;;;;;21.67;17.50;;;;;;;;;;5078056;28;20213;-78
2022/10/21 09:41:49;;;;;;;22.67;16.10;;;;;;;;;;5096679;28;20181;-78
2022/10/21 09:44:17;;;;;;;22.83;16.93;;;;;;;;;;5096444;28;20181;-78
2022/10/21 09:46:47;;;;;;;20.10;15.87;;;;;;;;;;5078320;28;20178;-78
2022/10/21 09:49:19;;;;;;;19.83;14.63;;;;;;;;;;5078157;28;20274;-78
2022/10/21 09:51:45;;;;;;;20.43;13.93;;;;;;;;;;5096292;28;20178;-78
2022/10/21 09:54:17;;;;;;;17.87;12.93;;;;;;;;;;5096089;28;20198;-81
2022/10/21 09:56:46;;;;;;;17.20;12.30;;;;;;;;;;5079009;28;20265;-81
2022/10/21 09:59:13;;;;;;;17.03;11.83;;;;;;;;;;5095909;28;20293;-81
2022/10/21 10:01:40;;;;;;;18.97;11.47;;;;;;;;;;5077922;28;20265;-81
2022/10/21 10:04:14;;;;;;;16.23;10.57;;;;;;;;;;5087806;28;20221;-81
2022/10/21 10:06:42;;;;;;;16.07;11.00;;;;;;;;;;5074539;28;20175;-81
2022/10/21 10:09:14;;;;;;;16.27;11.50;;;;;;;;;;5075046;28;20186;-78
2022/10/21 10:11:52;;;;;;;18.17;10.93;;;;;;;;;;5077384;28;20201;-77
2022/10/21 10:14:26;;;;;;;18.23;11.77;;;;;;;;;;5094350;28;20185;-78
2022/10/21 10:16:52;;;;;;;13.67;11.07;;;;;;;;;;5094169;28;20182;-78
2022/10/21 10:19:24;;;;;;;18.17;12.13;;;;;;;;;;5077445;28;20277;-77
2022/10/21 10:22:08;;;;;;;17.77;11.33;;;;;;;;;;5077781;28;20181;-77
2022/10/21 10:24:35;;;;;;;15.63;12.00;;;;;;;;;;5094396;28;20218;-77
2022/10/21 10:27:05;;;;;;;17.60;12.00;;;;;;;;;;5073935;28;20203;-89
2022/10/21 10:29:33;;;;;;;17.63;12.73;;;;;;;;;;5070418;28;20175;-90
2022/10/21 10:32:01;;;;;;;20.87;13.17;;;;;;;;;;5095632;28;20182;-90
2022/10/21 10:34:36;;;;;;;18.43;11.93;;;;;;;;;;5094301;28;20186;-89
2022/10/21 10:37:06;;;;;;;16.63;12.77;;;;;;;;;;5095837;28;20265;-89
2022/10/21 10:39:34;;;;;;;21.10;13.07;;;;;;;;;;5079700;28;20202;-90
2022/10/21 10:42:03;;;;;;;15.53;12.23;;;;;;;;;;5095858;28;20182;-89
2022/10/21 10:44:37;;;;;;;22.17;13.00;;;;;;;;;;5076259;28;20171;-83
2022/10/21 10:47:04;;;;;;;22.03;13.90;;;;;;;;;;5093444;28;20236;-83
2022/10/21 10:49:39;;;;;;;16.20;12.47;;;;;;;;;;5081641;28;20179;-83
2022/10/21 10:52:07;;;;;;;18.67;13.93;;;;;;;;;;5090786;28;20201;-83
2022/10/21 10:54:34;;;;;;;27.07;20.03;;;;;;;;;;5056467;28;20260;-83
2022/10/21 10:57:01;;;;;;;22.80;14.07;;;;;;;;;;5064125;28;20175;-83
2022/10/21 10:59:46;;;;;;;17.70;13.47;;;;;;;;;;5076286;28;20210;-81
2022/10/21 11:02:21;;;;;;;18.50;12.90;;;;;;;;;;5094158;28;20175;-80
2022/10/21 11:04:48;;;;;;;20.17;13.00;;;;;;;;;;5088836;28;20174;-81
2022/10/21 11:07:34;;;;;;;19.67;11.80;;;;;;;;;;5078618;28;20176;-81
2022/10/21 11:10:07;;;;;;;13.63;11.03;;;;;;;;;;5075889;28;20182;-81
2022/10/21 11:12:33;;;;;;;14.50;10.20;;;;;;;;;;5059992;28;20181;-81
2022/10/21 11:15:00;;;;;;;14.03;9.90;;;;;;;;;;5072838;28;20179;-81
2022/10/21 11:17:37;;;;;;;12.40;9.87;;;;;;;;;;5050437;28;20179;-79
2022/10/21 11:20:25;;;;;;;17.07;9.67;;;;;;;;;;5075819;28;20201;-79
2022/10/21 11:22:59;;;;;;;11.17;9.17;;;;;;;;;;5060859;28;20179;-78
2022/10/21 11:25:42;;;;;;;13.30;9.57;;;;;;;;;;5063307;28;20195;-78
2022/10/21 11:28:31;;;;;;;12.47;9.50;;;;;;;;;;5072106;28;20213;-78
2022/10/21 11:31:00;;;;;;;16.10;10.30;;;;;;;;;;5093372;28;20178;-90
2022/10/21 11:33:39;;;;;;;12.20;9.87;;;;;;;;;;5094391;28;20224;-79
2022/10/21 11:36:09;;;;;;;13.83;9.43;;;;;;;;;;5073411;28;20228;-79
2022/10/21 11:38:44;;;;;;;12.73;10.23;;;;;;;;;;5093233;28;20206;-79
2022/10/21 11:41:20;;;;;;;13.93;10.47;;;;;;;;;;5092090;28;20166;-79
2022/10/21 11:43:51;;;;;;;13.77;10.10;;;;;;;;;;5074254;28;20167;-79
2022/10/21 11:46:21;;;;;;;13.60;9.83;;;;;;;;;;5072866;28;20212;-79
2022/10/21 11:48:50;;;;;;;16.57;10.83;;;;;;;;;;5085714;28;20170;-79
2022/10/21 11:51:38;;;;;;;15.93;10.70;;;;;;;;;;5075234;28;20188;-91
2022/10/21 11:54:20;;;;;;;13.23;9.83;;;;;;;;;;5095975;28;20216;-91
2022/10/21 11:56:51;;;;;;;12.97;9.67;;;;;;;;;;5077057;28;20190;-91
2022/10/21 11:59:17;;;;;;;11.70;8.97;;;;;;;;;;5077575;28;20209;-91
2022/10/21 12:02:00;;;;;;;12.43;9.03;;;;;;;;;;5096015;28;20194;-89
2022/10/21 12:04:44;;;;;;;14.07;8.83;;;;;;;;;;5076617;28;20261;-91
2022/10/21 12:07:13;;;;;;;11.50;9.47;;;;;;;;;;5076135;28;20163;-82
2022/10/21 12:09:44;;;;;;;12.50;8.97;;;;;;;;;;5075429;28;20216;-82
2022/10/21 12:12:12;;;;;;;12.27;8.60;;;;;;;;;;5093391;28;20206;-82
2022/10/21 12:14:58;;;;;;;11.10;7.90;;;;;;;;;;5075464;28;20214;-82
2022/10/21 12:17:24;;;;;;;13.77;8.60;;;;;;;;;;5078957;28;20200;-91
2022/10/21 12:19:55;;;;;;;11.07;8.47;;;;;;;;;;5065838;28;20262;-91
2022/10/21 12:22:22;;;;;;;10.23;8.50;;;;;;;;;;5077387;28;20186;-80
2022/10/21 12:25:07;;;;;;;9.43;6.97;;;;;;;;;;5075475;28;20263;-79
2022/10/21 12:27:53;;;;;;;11.50;6.67;;;;;;;;;;5075070;28;20179;-79
2022/10/21 12:30:20;;;;;;;11.13;6.97;;;;;;;;;;5075059;28;20186;-79
2022/10/21 12:32:56;;;;;;;11.20;6.90;;;;;;;;;;5075132;28;20179;-79
2022/10/21 12:35:26;;;;;;;9.53;6.47;;;;;;;;;;5075283;28;20185;-80
2022/10/21 12:37:52;;;;;;;14.40;6.30;;;;;;;;;;5093241;28;20181;-80
2022/10/21 12:40:24;;;;;;;7.37;5.57;;;;;;;;;;5095504;28;20237;-91
2022/10/21 12:42:58;;;;;;;8.80;6.30;;;;;;;;;;5080336;28;20278;-91
2022/10/21 12:45:25;;;;;;;8.57;6.10;;;;;;;;;;5080989;28;20175;-90
2022/10/21 12:47:52;;;;;;;10.27;6.67;;;;;;;;;;5081227;28;20179;-90
2022/10/21 12:50:18;;;;;;;9.20;6.07;;;;;;;;;;5080058;28;20175;-91
2022/10/21 12:52:45;;;;;;;7.97;6.23;;;;;;;;;;5079786;28;20185;-90
2022/10/21 12:55:21;;;;;;;8.43;6.20;;;;;;;;;;5080308;28;20178;-91
2022/10/21 12:57:55;;;;;;;12.17;5.87;;;;;;;;;;5079727;28;20268;-79
2022/10/21 13:00:21;;;;;;;7.53;6.13;;;;;;;;;;5078355;28;20209;-79
2022/10/21 13:02:58;;;;;;;7.77;5.90;;;;;;;;;;5078511;28;20174;-80
2022/10/21 13:05:36;;;;;;;8.23;6.87;;;;;;;;;;5078713;28;20197;-79
2022/10/21 13:08:23;;;;;;;8.40;6.60;;;;;;;;;;5096596;28;20174;-79
2022/10/21 13:11:04;;;;;;;7.43;6.20;;;;;;;;;;5064282;28;20186;-79
2022/10/21 13:13:30;;;;;;;9.27;6.90;;;;;;;;;;5078487;28;20251;-82
2022/10/21 13:15:57;;;;;;;9.37;6.43;;;;;;;;;;5078075;28;20186;-82
2022/10/21 13:18:42;;;;;;;8.80;6.40;;;;;;;;;;5077244;28;20191;-81
2022/10/21 13:21:21;;;;;;;9.63;6.17;;;;;;;;;;5078051;28;20277;-82
2022/10/21 13:23:49;;;;;;;9.10;6.00;;;;;;;;;;5077939;28;20351;-82
2022/10/21 13:26:18;;;;;;;9.20;5.93;;;;;;;;;;5078009;28;20227;-82
2022/10/21 13:28:55;;;;;;;9.13;6.27;;;;;;;;;;5095957;28;20231;-79
2022/10/21 13:31:21;;;;;;;13.77;5.60;;;;;;;;;;5096073;28;20227;-84
2022/10/21 13:33:51;;;;;;;9.80;5.10;;;;;;;;;;5077947;28;20236;-79
2022/10/21 13:36:27;;;;;;;8.90;5.33;;;;;;;;;;5078234;28;20182;-79
2022/10/21 13:38:54;;;;;;;12.70;5.70;;;;;;;;;;5077803;28;20341;-79
2022/10/21 13:41:28;;;;;;;7.80;5.47;;;;;;;;;;5095899;28;20182;-79
2022/10/21 13:43:56;;;;;;;9.50;5.50;;;;;;;;;;5077756;28;20265;-79
2022/10/21 13:46:34;;;;;;;7.97;5.23;;;;;;;;;;5077891;28;20179;-81
2022/10/21 13:49:00;;;;;;;6.60;4.70;;;;;;;;;;5077743;28;20250;-81
2022/10/21 13:51:28;;;;;;;8.57;5.00;;;;;;;;;;5077723;28;20182;-82
2022/10/21 13:53:59;;;;;;;7.97;4.93;;;;;;;;;;5077819;28;20171;-82
2022/10/21 13:56:29;;;;;;;6.17;4.43;;;;;;;;;;5095458;28;20257;-82
2022/10/21 13:58:55;;;;;;;6.57;4.87;;;;;;;;;;5077242;28;20182;-82
2022/10/21 14:01:26;;;;;;;8.23;4.60;;;;;;;;;;5050807;28;20248;-81
2022/10/21 14:03:53;;;;;;;5.30;4.07;;;;;;;;;;5057457;28;20172;-79
2022/10/21 14:06:30;;;;;;;7.27;4.60;;;;;;;;;;5075599;28;20182;-80
2022/10/21 14:09:00;;;;;;;8.50;4.40;;;;;;;;;;5076683;28;20194;-79
2022/10/21 14:11:27;;;;;;;7.63;4.60;;;;;;;;;;5095175;28;20257;-79
2022/10/21 14:13:54;;;;;;;5.63;4.30;;;;;;;;;;5077108;28;20174;-79
2022/10/21 14:16:31;;;;;;;6.37;4.47;;;;;;;;;;5077257;28;20182;-79
2022/10/21 14:18:58;;;;;;;6.03;4.47;;;;;;;;;;5077009;28;20178;-80
2022/10/21 14:21:25;;;;;;;8.03;4.60;;;;;;;;;;5066640;28;20175;-82
2022/10/21 14:23:52;;;;;;;5.93;5.20;;;;;;;;;;5056863;28;20231;-81
2022/10/21 14:26:18;;;;;;;9.83;5.33;;;;;;;;;;5074770;28;20261;-82
2022/10/21 14:28:45;;;;;;;5.80;4.63;;;;;;;;;;5077046;28;20170;-82
2022/10/21 14:31:12;;;;;;;8.17;5.00;;;;;;;;;;5094913;28;20167;-82